logo
Rechercher aéroport 
image banner adimage banner adimage banner ad
image banner ad

CA876 - Pontiac Airpark Qc (Cpc7)

Situé à , Canada

ICAO - , IATA -

Données fournies par Airmate  

Information générale

Coordonnées: N45°31'25" W76°10'15"
Élévation : feet MSL.
 
Voir autres Aéroports à Quebec

Données opérationnelles

Special qualification required
Heure actuelle UTC:
Heure actuelle locale:
METAR: CYOW 312100Z 22005KT 15SM SKC M09/M20 A3027 RMK SLP263
TAF: TAF CYOW 062340Z 0700/0724 VRB03KT P6SM SKC FM070900 07008KT P6SM FEW010 FM071500 10008KT P6SM SCT140 BKN200 FM071900 13005KT P6SM FEW012 BKN025 OVC040 TEMPO 0719/0721 3SM -SN BKN012 OVC040 PROB30 0720/0721 3SM -SN -FZDZ FM072100 13005KT 3SM -SN OVC015 PROB30 0721/0724 2SM -SN -FZDZ OVC012 RMK NXT FCST BY 070300Z
Voir NOTAMs / SUP AIP / TFR affectant cet aéroport [VIEW]
Fréquences de communication: [VIEW]

Pistes:

Coordonnées de l'aéroport

Adresse: Canada

Vue satellite de CA876